Time;durP1;ratioP1;P1;durP2;ratioP2;P2;SDS_P1;SDS_P2;PMS_P1;PMS_P2;Temp;Humidity;BMP_temperature;BMP_pressure;BME280_temperature;BME280_humidity;BME280_pressure;Samples;Min_cycle;Max_cycle;Signal;HPM_P1;HPM_P2
2022/01/11 00:00:57;;;;;;;40.73;16.57;;;;;;;;;;5111366;28;20043;-67
2022/01/11 00:03:24;;;;;;;101.67;24.60;;;0.70;99.90;;;;;;5110772;28;20476;-67
2022/01/11 00:05:58;;;;;;;70.40;20.73;;;;;;;;;;5111869;28;20051;-66
2022/01/11 00:08:30;;;;;;;120.77;26.40;;;0.70;99.90;;;;;;5110627;28;20023;-66
2022/01/11 00:11:03;;;;;;;65.57;20.07;;;0.60;99.90;;;;;;5098523;28;20422;-67
2022/01/11 00:13:34;;;;;;;99.33;24.87;;;0.50;99.90;;;;;;5090966;28;20031;-66
2022/01/11 00:16:00;;;;;;;98.47;25.80;;;;;;;;;;5091015;28;20115;-66
2022/01/11 00:18:26;;;;;;;97.83;28.30;;;0.60;99.90;;;;;;5090489;28;20020;-66
2022/01/11 00:20:52;;;;;;;66.77;25.27;;;;;;;;;;5091215;28;20032;-67
2022/01/11 00:25:46;;;;;;;58.87;23.27;;;0.60;99.90;;;;;;5090808;28;20107;-66
2022/01/11 00:28:17;;;;;;;56.17;23.70;;;0.60;99.90;;;;;;5094717;28;20032;-66
2022/01/11 00:30:45;;;;;;;64.87;23.30;;;0.60;99.90;;;;;;5090642;28;20052;-66
2022/01/11 00:33:15;;;;;;;63.00;23.70;;;0.50;99.90;;;;;;5090836;28;20053;-66
2022/01/11 00:35:43;;;;;;;89.03;29.10;;;0.60;99.90;;;;;;5089929;28;20024;-66
2022/01/11 00:38:16;;;;;;;62.30;21.40;;;0.50;99.90;;;;;;5093673;28;20108;-67
2022/01/11 00:40:46;;;;;;;97.40;26.97;;;0.50;99.90;;;;;;5110996;28;20039;-67
2022/01/11 00:43:12;;;;;;;128.70;27.70;;;0.60;99.90;;;;;;5110952;28;20020;-66
2022/01/11 00:45:38;;;;;;;97.03;24.83;;;;;;;;;;5110768;28;20034;-66
2022/01/11 00:48:04;;;;;;;124.90;27.93;;;0.40;99.90;;;;;;5110981;28;20389;-66
2022/01/11 00:50:32;;;;;;;50.80;21.23;;;;;;;;;;5110060;28;20070;-66
2022/01/11 00:52:58;;;;;;;78.87;24.83;;;0.50;99.90;;;;;;5110850;28;20031;-66
2022/01/11 00:55:24;;;;;;;76.30;24.77;;;0.50;99.90;;;;;;5110109;28;20024;-66
2022/01/11 00:57:50;;;;;;;45.23;19.90;;;0.40;99.90;;;;;;5110140;28;20047;-66
2022/01/11 01:00:15;;;;;;;72.70;22.10;;;0.40;99.90;;;;;;5110626;28;20039;-66
2022/01/11 01:02:42;;;;;;;101.13;25.87;;;0.40;99.90;;;;;;5110352;28;20126;-66
2022/01/11 01:05:08;;;;;;;82.47;24.90;;;0.70;99.90;;;;;;5110090;28;20031;-66
2022/01/11 01:07:34;;;;;;;79.97;22.47;;;;;;;;;;5110278;28;20031;-66
2022/01/11 01:10:07;;;;;;;76.33;22.00;;;;;;;;;;5110616;28;20031;-66
2022/01/11 01:12:36;;;;;;;107.57;24.80;;;0.60;99.90;;;;;;5110126;28;20055;-66
2022/01/11 01:15:02;;;;;;;160.57;30.53;;;0.60;99.90;;;;;;5109047;28;20023;-67
2022/01/11 01:17:27;;;;;;;66.77;21.93;;;0.70;99.90;;;;;;5109912;28;20096;-66
2022/01/11 01:19:53;;;;;;;87.53;26.07;;;0.60;99.90;;;;;;5110080;28;20114;-66
2022/01/11 01:22:19;;;;;;;75.50;22.83;;;0.50;99.90;;;;;;5110034;28;20024;-66
2022/01/11 01:24:46;;;;;;;125.13;28.93;;;;;;;;;;5108340;28;20028;-66
2022/01/11 01:27:12;;;;;;;67.60;23.17;;;0.40;99.90;;;;;;5110171;28;20019;-66
2022/01/11 01:29:40;;;;;;;65.03;22.30;;;0.70;99.90;;;;;;5109616;28;20036;-66
2022/01/11 01:32:09;;;;;;;52.47;19.37;;;0.60;99.90;;;;;;5109753;28;20361;-66
2022/01/11 01:34:35;;;;;;;73.27;23.03;;;0.70;99.90;;;;;;5109196;28;20357;-66
2022/01/11 01:37:02;;;;;;;74.03;26.87;;;;;;;;;;5109793;28;20074;-66
2022/01/11 01:39:28;;;;;;;81.10;26.77;;;;;;;;;;5109229;28;20039;-66
2022/01/11 01:41:53;;;;;;;65.20;27.37;;;0.80;99.90;;;;;;5109690;28;20027;-66
2022/01/11 01:44:20;;;;;;;61.73;26.07;;;0.80;99.90;;;;;;5109795;28;20031;-67
2022/01/11 01:46:46;;;;;;;72.00;27.00;;;0.70;99.90;;;;;;5109571;28;20065;-67
2022/01/11 01:49:17;;;;;;;75.13;27.10;;;0.70;99.90;;;;;;5109215;28;20108;-67
2022/01/11 01:51:43;;;;;;;63.73;26.97;;;0.70;99.90;;;;;;5109073;27;20028;-66
2022/01/11 01:54:09;;;;;;;75.83;27.63;;;0.80;99.90;;;;;;5109728;28;20027;-67
2022/01/11 01:56:36;;;;;;;50.23;20.90;;;;;;;;;;5109199;28;20024;-67
2022/01/11 01:59:03;;;;;;;69.93;27.07;;;0.70;99.90;;;;;;5109484;28;20476;-67
2022/01/11 02:01:28;;;;;;;46.53;23.10;;;0.60;99.90;;;;;;5108561;28;20050;-66
2022/01/11 02:03:54;;;;;;;54.10;23.90;;;;;;;;;;5109359;28;20019;-66
2022/01/11 02:06:21;;;;;;;60.73;26.53;;;0.70;99.90;;;;;;5109396;28;20106;-67
2022/01/11 02:08:48;;;;;;;53.97;22.57;;;0.90;99.90;;;;;;5108924;28;20556;-67
2022/01/11 02:11:22;;;;;;;61.73;25.63;;;0.70;99.90;;;;;;5109100;28;20028;-66
2022/01/11 02:13:49;;;;;;;48.42;20.85;;;0.80;99.90;;;;;;5109398;28;20496;-67
2022/01/11 02:16:15;;;;;;;59.33;24.57;;;0.80;99.90;;;;;;5109210;28;20380;-66
2022/01/11 02:18:42;;;;;;;74.00;27.97;;;1.30;99.90;;;;;;5108293;28;20115;-67
2022/01/11 02:21:08;;;;;;;44.70;22.60;;;0.80;99.90;;;;;;5108672;28;20039;-66
2022/01/11 02:23:33;;;;;;;47.90;22.80;;;0.80;99.90;;;;;;5108636;28;20036;-67
2022/01/11 02:25:59;;;;;;;51.60;22.50;;;1.20;99.90;;;;;;5109127;28;20115;-67
2022/01/11 02:28:27;;;;;;;62.80;27.47;;;0.80;99.90;;;;;;5108436;28;20483;-66
2022/01/11 02:30:54;;;;;;;47.97;22.60;;;0.70;99.90;;;;;;5108883;28;20102;-66
2022/01/11 02:33:33;;;;;;;45.77;21.90;;;0.80;99.90;;;;;;5113248;27;20035;-66
2022/01/11 02:36:10;;;;;;;49.17;21.60;;;0.70;99.90;;;;;;5117291;27;20041;-66
2022/01/11 02:38:36;;;;;;;62.20;23.43;;;0.80;99.90;;;;;;5108264;28;20059;-67
2022/01/11 02:41:03;;;;;;;60.23;22.97;;;0.70;99.90;;;;;;5108549;28;20039;-66
2022/01/11 02:43:28;;;;;;;68.43;24.93;;;0.40;99.90;;;;;;5107631;27;20081;-66
2022/01/11 02:45:55;;;;;;;56.43;21.47;;;1.10;99.90;;;;;;5108733;28;20035;-67
2022/01/11 02:48:23;;;;;;;57.53;23.00;;;0.60;99.90;;;;;;5108105;28;20066;-67
2022/01/11 02:50:49;;;;;;;59.10;24.97;;;0.90;99.90;;;;;;5107659;28;20031;-67
2022/01/11 02:53:15;;;;;;;59.07;24.40;;;0.70;99.90;;;;;;5106487;28;20496;-66
2022/01/11 02:55:43;;;;;;;101.83;32.90;;;;;;;;;;5106143;28;20717;-66
2022/01/11 02:58:09;;;;;;;56.73;24.13;;;0.60;99.90;;;;;;5106451;28;20020;-66
2022/01/11 03:00:38;;;;;;;58.73;26.17;;;0.60;99.90;;;;;;5105441;28;20028;-66
2022/01/11 03:03:12;;;;;;;49.57;24.10;;;0.70;99.90;;;;;;5106282;28;20038;-67
2022/01/11 03:05:45;;;;;;;46.67;20.75;;;0.80;99.90;;;;;;5104897;28;20368;-67
2022/01/11 03:08:12;;;;;;;56.45;26.80;;;0.80;99.90;;;;;;5108565;28;20055;-67
2022/01/11 03:10:37;;;;;;;57.30;25.20;;;0.70;99.90;;;;;;5108024;28;20050;-66
2022/01/11 03:13:05;;;;;;;62.47;27.73;;;0.50;99.90;;;;;;5107751;28;20136;-66
2022/01/11 03:15:31;;;;;;;62.23;25.17;;;0.60;99.90;;;;;;5107553;28;20028;-67
2022/01/11 03:17:57;;;;;;;57.13;23.63;;;0.50;99.90;;;;;;5108493;28;20356;-66
2022/01/11 03:20:23;;;;;;;55.90;26.13;;;;;;;;;;5110218;28;20031;-67
2022/01/11 03:22:49;;;;;;;48.80;23.70;;;0.60;99.90;;;;;;5112510;28;20059;-66
2022/01/11 03:25:16;;;;;;;65.80;29.10;;;0.60;99.90;;;;;;5112726;28;20016;-67
2022/01/11 03:27:41;;;;;;;53.20;23.53;;;0.60;99.90;;;;;;5111965;28;20400;-67
2022/01/11 03:30:08;;;;;;;48.03;23.53;;;0.60;99.90;;;;;;5111775;28;20428;-67
2022/01/11 03:32:34;;;;;;;60.87;27.03;;;0.80;99.90;;;;;;5111735;28;20038;-66
2022/01/11 03:34:59;;;;;;;77.73;31.47;;;;;;;;;;5112289;28;20023;-67
2022/01/11 03:37:25;;;;;;;51.20;24.77;;;;;;;;;;5111519;28;20040;-66
2022/01/11 03:39:51;;;;;;;60.57;26.87;;;0.70;99.90;;;;;;5110928;28;20330;-67
2022/01/11 03:42:17;;;;;;;73.17;28.83;;;0.90;99.90;;;;;;5111750;28;20843;-67
2022/01/11 03:44:42;;;;;;;66.37;29.97;;;0.40;99.90;;;;;;5111263;28;20405;-67
2022/01/11 03:47:08;;;;;;;46.77;23.43;;;0.70;99.90;;;;;;5111920;28;20097;-66
2022/01/11 03:49:34;;;;;;;61.57;26.77;;;0.90;99.90;;;;;;5111426;28;20389;-67
2022/01/11 03:51:59;;;;;;;68.43;29.83;;;0.90;99.90;;;;;;5111605;28;20103;-66
2022/01/11 03:54:42;;;;;;;60.93;27.53;;;0.80;99.90;;;;;;5111415;28;20027;-67
2022/01/11 03:57:08;;;;;;;61.93;30.47;;;0.90;99.90;;;;;;5111787;28;20024;-66
2022/01/11 03:59:34;;;;;;;59.47;27.20;;;0.60;99.90;;;;;;5110933;28;20046;-67
2022/01/11 04:02:00;;;;;;;59.73;27.73;;;0.90;99.90;;;;;;5111521;28;20039;-66
2022/01/11 04:04:26;;;;;;;63.90;28.43;;;0.80;99.90;;;;;;5111193;28;20058;-66
2022/01/11 04:06:52;;;;;;;65.97;30.97;;;0.80;99.90;;;;;;5111805;28;20024;-66
2022/01/11 04:09:18;;;;;;;55.63;25.63;;;0.70;99.90;;;;;;5111543;28;20028;-66
2022/01/11 04:11:44;;;;;;;70.87;30.60;;;;;;;;;;5111011;28;20040;-66
2022/01/11 04:14:09;;;;;;;52.60;27.30;;;0.90;99.90;;;;;;5110897;28;20110;-66
2022/01/11 04:16:35;;;;;;;60.20;28.87;;;;;;;;;;5111048;28;20213;-66
2022/01/11 04:19:01;;;;;;;54.63;27.53;;;;;;;;;;5111176;28;20053;-66
2022/01/11 04:21:26;;;;;;;61.27;30.17;;;0.80;99.90;;;;;;5110888;28;20035;-66
2022/01/11 04:23:54;;;;;;;71.20;30.43;;;;;;;;;;5111281;28;20069;-66
2022/01/11 04:26:20;;;;;;;76.27;32.63;;;;;;;;;;5111332;28;20088;-66
2022/01/11 04:28:46;;;;;;;51.73;26.80;;;;;;;;;;5110624;28;20387;-66
2022/01/11 04:31:11;;;;;;;57.10;27.30;;;0.90;99.90;;;;;;5110825;28;20111;-66
2022/01/11 04:33:42;;;;;;;55.97;28.10;;;0.80;99.90;;;;;;5110795;28;20098;-66
2022/01/11 04:36:08;;;;;;;56.23;27.13;;;0.90;99.90;;;;;;5110967;27;20031;-66
2022/01/11 04:38:34;;;;;;;60.27;27.17;;;0.70;99.90;;;;;;5110400;28;20135;-66
2022/01/11 04:41:00;;;;;;;63.00;29.23;;;0.80;99.90;;;;;;5109228;28;20118;-66
2022/01/11 04:43:26;;;;;;;63.83;29.60;;;0.90;99.90;;;;;;5109819;28;20027;-66
2022/01/11 04:45:51;;;;;;;60.13;27.17;;;0.90;99.90;;;;;;5111043;28;20039;-66
2022/01/11 04:48:18;;;;;;;65.83;29.77;;;1.00;99.90;;;;;;5110662;28;20115;-66
2022/01/11 04:50:45;;;;;;;42.07;21.40;;;;;;;;;;5110447;28;20122;-66
2022/01/11 04:53:11;;;;;;;42.03;24.53;;;0.50;99.90;;;;;;5110552;28;20483;-66
2022/01/11 04:55:37;;;;;;;51.63;25.50;;;;;;;;;;5110194;28;20031;-66
2022/01/11 04:58:03;;;;;;;42.63;21.40;;;0.80;99.90;;;;;;5110141;28;20027;-66
2022/01/11 05:00:28;;;;;;;57.70;26.33;;;0.70;99.90;;;;;;5109976;28;20057;-66
2022/01/11 05:02:59;;;;;;;46.07;24.27;;;0.80;99.90;;;;;;5110783;28;20039;-66
2022/01/11 05:05:26;;;;;;;63.30;28.27;;;;;;;;;;5109865;28;20341;-66
2022/01/11 05:07:51;;;;;;;55.80;26.53;;;1.00;99.90;;;;;;5110670;28;20737;-66
2022/01/11 05:10:17;;;;;;;64.57;28.73;;;;;;;;;;5110313;28;20047;-66
2022/01/11 05:12:43;;;;;;;53.60;25.57;;;0.70;99.90;;;;;;5109584;28;20028;-66
2022/01/11 05:15:12;;;;;;;60.33;27.50;;;0.90;99.90;;;;;;5109961;28;20088;-66
2022/01/11 05:17:39;;;;;;;58.30;26.37;;;0.80;99.90;;;;;;5109997;28;20526;-66
2022/01/11 05:20:06;;;;;;;45.63;21.90;;;0.80;99.90;;;;;;5109978;28;20150;-66
2022/01/11 05:22:32;;;;;;;54.00;26.80;;;1.00;99.90;;;;;;5109947;28;20352;-66
2022/01/11 05:24:58;;;;;;;54.33;26.70;;;;;;;;;;5110140;28;20107;-67
2022/01/11 05:27:24;;;;;;;52.87;26.90;;;0.80;99.90;;;;;;5109111;28;20019;-66
2022/01/11 05:29:50;;;;;;;47.40;23.60;;;0.90;99.90;;;;;;5110399;27;20357;-66
2022/01/11 05:32:16;;;;;;;52.73;24.20;;;0.70;99.90;;;;;;5109985;28;20081;-66
2022/01/11 05:34:42;;;;;;;52.80;25.83;;;;;;;;;;5109296;28;20050;-66
2022/01/11 05:37:07;;;;;;;53.03;26.70;;;0.70;99.90;;;;;;5108151;28;20373;-67
2022/01/11 05:39:33;;;;;;;58.50;26.20;;;0.80;99.90;;;;;;5109455;28;20019;-67
2022/01/11 05:41:59;;;;;;;53.07;27.30;;;0.70;99.90;;;;;;5108904;28;20043;-66
2022/01/11 05:44:25;;;;;;;53.20;24.90;;;;;;;;;;5108967;28;20024;-66
2022/01/11 05:46:51;;;;;;;51.17;24.47;;;0.80;99.90;;;;;;5109945;28;20357;-66
2022/01/11 05:49:17;;;;;;;50.87;25.70;;;0.70;99.90;;;;;;5109501;28;20043;-66
2022/01/11 05:51:42;;;;;;;58.33;27.57;;;0.50;99.90;;;;;;5109325;28;20409;-66
2022/01/11 05:54:08;;;;;;;59.53;28.03;;;;;;;;;;5109231;28;20035;-66
2022/01/11 05:56:34;;;;;;;47.17;26.10;;;0.50;99.90;;;;;;5108599;28;20464;-66
2022/01/11 05:58:59;;;;;;;55.70;26.37;;;0.70;99.90;;;;;;5109573;28;20058;-67
2022/01/11 06:01:25;;;;;;;52.43;28.10;;;0.40;99.90;;;;;;5108706;28;20070;-66
2022/01/11 06:03:50;;;;;;;41.70;21.63;;;0.40;99.90;;;;;;5109200;28;20031;-67
2022/01/11 06:06:16;;;;;;;42.23;22.17;;;0.30;99.90;;;;;;5109350;28;20547;-66
2022/01/11 06:08:42;;;;;;;47.80;25.67;;;;;;;;;;5108824;28;20024;-66
2022/01/11 06:11:08;;;;;;;52.33;23.57;;;0.50;99.90;;;;;;5108731;28;20119;-66
2022/01/11 06:13:35;;;;;;;48.73;24.30;;;0.70;99.90;;;;;;5097066;28;20099;-66
2022/01/11 06:16:01;;;;;;;46.07;24.07;;;;;;;;;;5097799;27;20507;-66
2022/01/11 06:18:26;;;;;;;50.87;25.53;;;0.30;99.90;;;;;;5107171;28;20121;-66
2022/01/11 06:20:52;;;;;;;46.47;22.67;;;0.20;99.90;;;;;;5106777;28;20036;-66
2022/01/11 06:23:18;;;;;;;46.67;23.37;;;;;;;;;;5107825;28;20461;-66
2022/01/11 06:25:43;;;;;;;46.40;25.33;;;0.30;99.90;;;;;;5093911;28;20034;-67
2022/01/11 06:28:09;;;;;;;43.27;20.17;;;0.30;99.90;;;;;;5108128;28;20038;-66
2022/01/11 06:30:34;;;;;;;51.43;26.87;;;0.40;99.90;;;;;;5107119;28;20023;-66
2022/01/11 06:33:00;;;;;;;41.13;21.50;;;;;;;;;;5108161;28;20392;-66
2022/01/11 06:35:27;;;;;;;49.90;25.97;;;0.60;99.90;;;;;;5107836;28;20027;-66
2022/01/11 06:37:53;;;;;;;40.87;21.63;;;0.60;99.90;;;;;;5108364;28;20051;-66
2022/01/11 06:40:20;;;;;;;46.90;23.17;;;0.50;99.90;;;;;;5107909;28;20035;-66
2022/01/11 06:42:47;;;;;;;52.67;27.03;;;0.50;99.90;;;;;;5108446;28;20109;-66
2022/01/11 06:45:14;;;;;;;42.93;23.13;;;0.50;99.90;;;;;;5108799;28;20020;-66
2022/01/11 06:47:40;;;;;;;48.47;24.20;;;0.50;99.90;;;;;;5108092;28;20027;-66
2022/01/11 06:50:07;;;;;;;40.53;21.77;;;;;;;;;;5108483;28;20041;-66
2022/01/11 06:52:32;;;;;;;47.90;26.10;;;0.40;99.90;;;;;;5107981;28;20472;-66
2022/01/11 06:54:58;;;;;;;47.37;23.63;;;;;;;;;;5107858;28;20068;-66
2022/01/11 06:57:24;;;;;;;52.57;25.93;;;0.40;99.90;;;;;;5108009;28;20024;-66
2022/01/11 06:59:50;;;;;;;62.77;28.20;;;0.50;99.90;;;;;;5108556;28;20019;-66
2022/01/11 07:02:15;;;;;;;45.87;24.47;;;0.20;99.90;;;;;;5108330;28;20172;-66
2022/01/11 07:04:42;;;;;;;56.17;26.17;;;;;;;;;;5101616;28;20024;-66
2022/01/11 07:07:08;;;;;;;45.70;23.13;;;;;;;;;;5088705;28;20031;-66
2022/01/11 07:09:34;;;;;;;46.00;23.73;;;0.40;99.90;;;;;;5094083;28;20038;-66
2022/01/11 07:12:01;;;;;;;51.60;24.20;;;0.40;99.90;;;;;;5094076;28;20410;-66
2022/01/11 07:14:27;;;;;;;48.87;25.13;;;;;;;;;;5090707;27;20020;-69
2022/01/11 07:16:53;;;;;;;53.67;24.73;;;;;;;;;;5089244;28;20039;-68
2022/01/11 07:19:19;;;;;;;45.77;23.67;;;0.40;99.90;;;;;;5097210;28;20107;-68
2022/01/11 07:21:46;;;;;;;54.37;26.00;;;0.10;99.90;;;;;;5104310;28;20058;-68
2022/01/11 07:24:14;;;;;;;51.80;25.03;;;0.20;99.90;;;;;;5087931;28;20043;-68
2022/01/11 07:26:40;;;;;;;50.40;26.50;;;0.20;99.90;;;;;;5087507;28;20093;-68
2022/01/11 07:29:07;;;;;;;40.43;20.63;;;0.10;99.90;;;;;;5087570;28;20115;-68
2022/01/11 07:31:33;;;;;;;41.07;22.47;;;0.10;99.90;;;;;;5088673;28;20481;-68
2022/01/11 07:33:59;;;;;;;45.13;25.03;;;0.10;99.90;;;;;;5107865;28;20422;-68
2022/01/11 07:36:25;;;;;;;51.80;24.10;;;-0.10;99.90;;;;;;5107195;28;20043;-68
2022/01/11 07:38:51;;;;;;;48.93;23.97;;;0.00;99.90;;;;;;5108238;28;20134;-68
2022/01/11 07:41:17;;;;;;;50.90;25.93;;;0.10;99.90;;;;;;5108105;28;20140;-68
2022/01/11 07:43:43;;;;;;;57.27;28.77;;;0.00;99.90;;;;;;5107550;28;20118;-68
2022/01/11 07:46:09;;;;;;;51.80;26.50;;;;;;;;;;5107916;28;20107;-68
2022/01/11 07:48:35;;;;;;;48.03;24.63;;;;;;;;;;5107686;28;20054;-68
2022/01/11 07:51:01;;;;;;;51.20;27.43;;;;;;;;;;5107720;28;20028;-68
2022/01/11 07:53:27;;;;;;;42.33;21.70;;;;;;;;;;5107395;28;20028;-68
2022/01/11 07:55:53;;;;;;;49.93;26.13;;;;;;;;;;5108256;28;20034;-68
2022/01/11 07:58:19;;;;;;;59.97;29.23;;;;;;;;;;5107980;28;20511;-68
2022/01/11 08:00:45;;;;;;;53.23;27.67;;;;;;;;;;5107342;28;20035;-68
2022/01/11 08:03:11;;;;;;;64.53;30.93;;;;;;;;;;5107638;28;20095;-68
2022/01/11 08:05:37;;;;;;;57.00;28.80;;;0.50;99.90;;;;;;5105460;28;20031;-67
2022/01/11 08:08:03;;;;;;;68.57;34.67;;;0.50;99.90;;;;;;5102409;28;20028;-67
2022/01/11 08:10:28;;;;;;;62.80;30.87;;;0.30;99.90;;;;;;5111103;28;20024;-68
2022/01/11 08:12:54;;;;;;;64.40;32.80;;;0.20;99.90;;;;;;5111525;28;20400;-67
2022/01/11 08:15:20;;;;;;;47.37;28.13;;;;;;;;;;5111312;28;20067;-67
2022/01/11 08:17:46;;;;;;;54.30;27.83;;;0.40;99.90;;;;;;5111168;28;20031;-67
2022/01/11 08:20:12;;;;;;;57.00;30.73;;;0.40;99.90;;;;;;5119017;27;20449;-67
2022/01/11 08:22:38;;;;;;;65.93;31.77;;;;;;;;;;5106105;27;20376;-68
2022/01/11 08:25:06;;;;;;;55.73;29.30;;;0.30;99.90;;;;;;5110979;28;20405;-67
2022/01/11 08:27:33;;;;;;;56.67;27.93;;;0.60;99.90;;;;;;5110733;28;20587;-67
2022/01/11 08:29:59;;;;;;;52.30;29.40;;;0.60;99.90;;;;;;5111152;28;20054;-68
2022/01/11 08:32:25;;;;;;;54.27;29.53;;;0.50;99.90;;;;;;5110341;28;20035;-68
2022/01/11 08:34:51;;;;;;;58.43;28.03;;;0.50;99.90;;;;;;5092885;28;20031;-67
2022/01/11 08:37:16;;;;;;;57.07;29.67;;;0.40;99.90;;;;;;5090402;28;20389;-68
2022/01/11 08:39:43;;;;;;;56.80;28.13;;;0.80;99.90;;;;;;5090297;28;20407;-68
2022/01/11 08:42:12;;;;;;;54.17;29.30;;;;;;;;;;5095082;28;20028;-68
2022/01/11 08:44:39;;;;;;;51.43;29.33;;;0.90;99.90;;;;;;5110574;28;20015;-68
2022/01/11 08:47:05;;;;;;;57.27;30.10;;;;;;;;;;5110727;28;20611;-68
2022/01/11 08:49:31;;;;;;;54.63;29.40;;;1.00;99.90;;;;;;5109970;28;20027;-68
2022/01/11 08:51:56;;;;;;;52.90;29.00;;;1.10;99.90;;;;;;5110674;28;20484;-68
2022/01/11 08:54:24;;;;;;;50.47;26.23;;;;;;;;;;5110297;28;20023;-68
2022/01/11 08:56:52;;;;;;;45.37;24.97;;;;;;;;;;5110612;28;20486;-68
2022/01/11 08:59:17;;;;;;;45.20;24.63;;;1.00;99.90;;;;;;5110561;28;20020;-68
2022/01/11 09:01:43;;;;;;;41.57;23.10;;;1.20;99.90;;;;;;5110083;28;20047;-68
2022/01/11 09:04:09;;;;;;;41.87;24.33;;;;;;;;;;5110032;28;20494;-68
2022/01/11 09:06:34;;;;;;;45.43;24.53;;;1.30;99.90;;;;;;5110196;28;20027;-68
2022/01/11 09:09:02;;;;;;;42.90;25.30;;;1.10;99.90;;;;;;5108885;28;20031;-70
2022/01/11 09:11:28;;;;;;;49.83;28.10;;;;;;;;;;5109958;28;20540;-68
2022/01/11 09:13:54;;;;;;;46.50;26.03;;;1.20;99.90;;;;;;5110517;28;20099;-68
2022/01/11 09:16:22;;;;;;;49.43;26.30;;;;;;;;;;5110206;28;20079;-68
2022/01/11 09:18:49;;;;;;;49.03;25.80;;;1.20;99.90;;;;;;5109022;28;20031;-67
2022/01/11 09:21:15;;;;;;;41.20;23.00;;;2.00;99.90;;;;;;5110259;28;20041;-67
2022/01/11 09:23:41;;;;;;;44.77;24.67;;;;;;;;;;5109983;28;20031;-67
2022/01/11 09:26:07;;;;;;;44.20;26.40;;;;;;;;;;5109917;28;20095;-67
2022/01/11 09:28:32;;;;;;;41.67;24.00;;;1.70;99.90;;;;;;5109594;28;20026;-67
2022/01/11 09:30:58;;;;;;;44.67;23.07;;;2.20;99.90;;;;;;5111637;27;20110;-67
2022/01/11 09:33:24;;;;;;;41.30;25.97;;;2.10;99.90;;;;;;5108701;28;20027;-68
2022/01/11 09:35:50;;;;;;;42.37;26.07;;;2.00;99.90;;;;;;5120992;27;20035;-68
2022/01/11 09:38:16;;;;;;;39.33;23.93;;;2.00;99.90;;;;;;5114502;27;20044;-68
2022/01/11 09:40:41;;;;;;;43.17;25.27;;;2.10;99.90;;;;;;5109428;28;20104;-68
2022/01/11 09:43:07;;;;;;;48.80;24.63;;;2.10;99.90;;;;;;5109554;28;20027;-67
2022/01/11 09:45:33;;;;;;;41.27;22.33;;;2.10;99.90;;;;;;5109479;28;20034;-67
2022/01/11 09:47:59;;;;;;;43.97;26.13;;;2.30;99.90;;;;;;5109028;28;20023;-68
2022/01/11 09:50:25;;;;;;;41.67;25.77;;;;;;;;;;5108953;28;20023;-68
2022/01/11 09:52:51;;;;;;;41.47;23.90;;;2.10;99.90;;;;;;5108262;28;20028;-68
2022/01/11 09:55:17;;;;;;;35.30;21.70;;;2.10;99.90;;;;;;5110027;27;20046;-67
2022/01/11 09:57:43;;;;;;;37.67;23.27;;;2.10;99.90;;;;;;5108304;28;20028;-68
2022/01/11 10:00:12;;;;;;;41.27;23.53;;;2.10;99.90;;;;;;5107372;28;20032;-68
2022/01/11 10:02:37;;;;;;;47.47;24.27;;;2.30;99.90;;;;;;5113252;27;20019;-67
2022/01/11 10:05:06;;;;;;;42.33;23.40;;;2.50;99.90;;;;;;5108813;28;20081;-68
2022/01/11 10:07:40;;;;;;;42.83;24.43;;;2.80;99.90;;;;;;5108856;28;20023;-68
2022/01/11 10:10:11;;;;;;;42.10;23.08;;;2.40;99.90;;;;;;5109125;28;20051;-67
2022/01/11 10:12:58;;;;;;;42.17;22.97;;;2.30;99.90;;;;;;5108751;28;20095;-67
2022/01/11 10:15:30;;;;;;;38.73;23.20;;;2.60;99.90;;;;;;5108390;28;20524;-67
2022/01/11 10:17:56;;;;;;;42.20;24.47;;;2.60;99.90;;;;;;5108685;28;20039;-68
2022/01/11 10:20:23;;;;;;;40.37;20.90;;;2.50;99.90;;;;;;5107793;28;20036;-67
2022/01/11 10:23:00;;;;;;;34.60;19.87;;;2.60;99.90;;;;;;5108511;28;20110;-67
2022/01/11 10:25:26;;;;;;;41.43;22.73;;;2.60;99.90;;;;;;5108135;28;20091;-68
2022/01/11 10:28:01;;;;;;;37.13;20.83;;;2.70;99.90;;;;;;5109000;27;20035;-68
2022/01/11 10:30:28;;;;;;;39.23;21.17;;;2.60;99.90;;;;;;5097718;28;20027;-68
2022/01/11 10:32:56;;;;;;;36.47;19.97;;;2.80;99.90;;;;;;5108560;28;20399;-68
2022/01/11 10:35:24;;;;;;;37.53;22.17;;;3.10;99.90;;;;;;5108138;28;20035;-68
2022/01/11 10:37:55;;;;;;;35.63;20.30;;;2.70;99.90;;;;;;5117824;27;20123;-68
2022/01/11 10:40:24;;;;;;;36.27;21.67;;;2.80;99.90;;;;;;5119923;27;20042;-68
2022/01/11 10:42:55;;;;;;;42.87;22.60;;;2.80;99.90;;;;;;5104182;27;20028;-68
2022/01/11 10:45:22;;;;;;;38.97;21.27;;;2.70;99.90;;;;;;5093101;28;20122;-68
2022/01/11 10:47:53;;;;;;;38.23;23.20;;;2.90;99.90;;;;;;5115719;27;20051;-68
2022/01/11 10:50:28;;;;;;;43.13;23.30;;;2.90;99.90;;;;;;5117192;27;20682;-67
2022/01/11 10:52:59;;;;;;;40.40;21.97;;;2.90;99.90;;;;;;5108335;28;20468;-68
2022/01/11 10:55:28;;;;;;;40.13;20.83;;;3.00;99.90;;;;;;5103160;28;20037;-68
2022/01/11 10:57:56;;;;;;;38.40;19.83;;;2.90;99.90;;;;;;5107262;28;20123;-68
2022/01/11 11:00:26;;;;;;;41.93;22.87;;;2.90;99.90;;;;;;5107136;28;20028;-68
2022/01/11 11:03:14;;;;;;;33.33;20.63;;;2.90;99.90;;;;;;5108042;28;20099;-68
2022/01/11 11:05:51;;;;;;;38.43;21.50;;;3.00;99.90;;;;;;5087093;28;20051;-67
2022/01/11 11:08:23;;;;;;;34.33;19.20;;;3.10;99.90;;;;;;5086848;28;20039;-67
2022/01/11 11:10:56;;;;;;;33.30;18.43;;;2.90;99.90;;;;;;5087056;28;20016;-68
2022/01/11 11:13:32;;;;;;;40.40;22.27;;;2.90;99.90;;;;;;5104293;28;20464;-67
2022/01/11 11:16:16;;;;;;;39.37;20.10;;;2.90;99.90;;;;;;5110204;28;20024;-67
2022/01/11 11:18:52;;;;;;;33.55;18.35;;;3.20;99.90;;;;;;5105070;28;20498;-67
2022/01/11 11:21:25;;;;;;;36.23;20.27;;;3.20;99.90;;;;;;5074946;22;20058;-72
2022/01/11 11:23:54;;;;;;;36.17;18.10;;;3.20;99.90;;;;;;5028907;28;20034;-72
2022/01/11 11:26:22;;;;;;;29.67;16.93;;;3.20;99.90;;;;;;5038563;28;20034;-72
2022/01/11 11:28:48;;;;;;;38.67;21.43;;;;;;;;;;5032196;28;20029;-72
2022/01/11 11:31:14;;;;;;;33.10;18.70;;;3.20;99.90;;;;;;5033768;28;20047;-72
2022/01/11 11:33:41;;;;;;;33.83;18.70;;;3.40;99.90;;;;;;5037768;28;20117;-72
2022/01/11 11:36:10;;;;;;;44.20;21.70;;;3.30;99.90;;;;;;5028377;28;20474;-72
2022/01/11 11:38:43;;;;;;;37.00;19.77;;;3.40;99.90;;;;;;5038618;28;20475;-72
2022/01/11 11:41:10;;;;;;;40.60;23.13;;;3.40;99.90;;;;;;5031223;28;20033;-72
2022/01/11 11:43:36;;;;;;;35.67;19.40;;;3.40;99.90;;;;;;5032137;28;20029;-72
2022/01/11 11:46:02;;;;;;;34.43;19.87;;;;;;;;;;5046831;28;20470;-72
2022/01/11 11:48:28;;;;;;;40.73;21.40;;;3.60;99.90;;;;;;5048357;28;20114;-72
2022/01/11 11:50:57;;;;;;;36.17;20.73;;;3.50;99.90;;;;;;5048963;28;20080;-72
2022/01/11 11:53:49;;;;;;;35.10;19.07;;;3.60;99.90;;;;;;5032133;28;20040;-72
2022/01/11 11:56:15;;;;;;;35.73;19.53;;;3.70;99.90;;;;;;5010803;28;20034;-72
2022/01/11 11:58:57;;;;;;;37.57;20.90;;;3.60;99.90;;;;;;5031749;28;20052;-72
2022/01/11 12:01:45;;;;;;;35.53;19.57;;;3.30;99.90;;;;;;5038548;28;20124;-71
2022/01/11 12:04:31;;;;;;;31.73;17.50;;;3.50;99.90;;;;;;5052385;28;20025;-71
2022/01/11 12:07:16;;;;;;;32.20;18.37;;;3.70;99.90;;;;;;5045287;28;20071;-72
2022/01/11 12:09:45;;;;;;;36.80;21.93;;;3.70;99.90;;;;;;5050932;28;20060;-71
2022/01/11 12:12:16;;;;;;;36.63;19.47;;;3.80;99.90;;;;;;5048855;28;20033;-71
2022/01/11 12:14:42;;;;;;;31.50;18.90;;;;;;;;;;5050540;28;20099;-72
2022/01/11 12:17:16;;;;;;;34.03;17.97;;;3.80;99.90;;;;;;5050970;28;20089;-71
2022/01/11 12:19:50;;;;;;;32.88;17.90;;;3.70;99.90;;;;;;5051078;28;20121;-72
2022/01/11 12:22:20;;;;;;;;;;;3.70;99.90;;;;;;5051627;28;20029;-72
2022/01/11 12:24:48;;;;;;;28.57;16.63;;;3.60;99.90;;;;;;5051270;28;19905;-72
2022/01/11 12:27:16;;;;;;;33.90;19.57;;;3.90;99.90;;;;;;5051001;28;20072;-72
2022/01/11 12:30:06;;;;;;;32.67;18.30;;;3.70;99.90;;;;;;5025962;28;20202;-72
2022/01/11 12:32:36;;;;;;;30.80;18.27;;;3.70;99.90;;;;;;5042306;28;20417;-71
2022/01/11 12:35:08;;;;;;;31.73;17.90;;;3.50;99.90;;;;;;5040346;28;20018;-71
2022/01/11 12:37:38;;;;;;;30.20;17.20;;;3.50;99.90;;;;;;5045262;28;20115;-71
2022/01/11 12:40:29;;;;;;;26.27;16.10;;;3.40;99.90;;;;;;5043623;28;20029;-72
2022/01/11 12:42:59;;;;;;;27.07;16.73;;;3.50;99.90;;;;;;5042008;28;20029;-71
2022/01/11 12:46:05;;;;;;;27.73;17.60;;;3.40;99.90;;;;;;5050597;28;20393;-73
2022/01/11 12:48:44;;;;;;;27.03;16.43;;;3.30;99.90;;;;;;5031165;28;20021;-72
2022/01/11 12:51:27;;;;;;;31.47;17.30;;;3.30;99.90;;;;;;5030892;28;20028;-72
2022/01/11 12:54:17;;;;;;;25.87;15.97;;;3.30;99.90;;;;;;5030622;28;20025;-73
2022/01/11 12:56:43;;;;;;;27.33;17.00;;;3.30;99.90;;;;;;5041235;28;20029;-72
2022/01/11 12:59:10;;;;;;;25.90;15.27;;;3.20;99.90;;;;;;5039414;28;20348;-72
2022/01/11 13:01:36;;;;;;;24.83;15.47;;;;;;;;;;5050108;28;20040;-72